createdAt,value
2023-04-15T00:01:12.236Z,1.80
2023-04-15T00:03:39.190Z,1.98
2023-04-15T00:06:06.188Z,1.90
2023-04-15T00:08:33.318Z,2.08
2023-04-15T00:11:05.864Z,1.90
2023-04-15T00:13:34.173Z,1.60
2023-04-15T00:16:01.586Z,1.88
2023-04-15T00:18:29.660Z,1.95
2023-04-15T00:20:56.829Z,2.20
2023-04-15T00:23:23.549Z,2.17
2023-04-15T00:25:50.032Z,2.10
2023-04-15T00:28:16.740Z,2.05
2023-04-15T00:30:43.464Z,2.03
2023-04-15T00:33:10.674Z,1.65
2023-04-15T00:35:37.585Z,1.65
2023-04-15T00:38:04.859Z,1.80
2023-04-15T00:40:31.436Z,1.50
2023-04-15T00:42:58.028Z,4.30
2023-04-15T00:45:24.721Z,3.60
2023-04-15T00:47:52.029Z,1.70
2023-04-15T00:50:18.638Z,2.10
2023-04-15T00:52:45.655Z,1.67
2023-04-15T00:55:12.177Z,1.70
2023-04-15T00:57:39.435Z,2.05
2023-04-15T01:00:08.050Z,1.70
2023-04-15T01:02:35.256Z,2.00
2023-04-15T01:05:02.335Z,2.00
2023-04-15T01:07:28.804Z,1.60
2023-04-15T01:09:55.656Z,1.80
2023-04-15T01:12:22.854Z,1.60
2023-04-15T01:14:49.352Z,1.60
2023-04-15T01:17:16.076Z,1.80
2023-04-15T01:19:42.750Z,1.60
2023-04-15T01:22:09.534Z,1.67
2023-04-15T01:24:38.446Z,1.70
2023-04-15T01:27:05.386Z,1.80
2023-04-15T01:29:32.751Z,1.90
2023-04-15T01:31:59.488Z,1.95
2023-04-15T01:34:27.148Z,1.70
2023-04-15T01:36:54.364Z,1.60
2023-04-15T01:39:21.903Z,1.88
2023-04-15T01:41:48.705Z,1.58
2023-04-15T01:44:16.470Z,1.65
2023-04-15T01:46:43.171Z,1.83
2023-04-15T01:49:09.771Z,1.88
2023-04-15T01:51:36.372Z,1.95
2023-04-15T01:54:02.931Z,1.98
2023-04-15T01:56:30.023Z,1.77
2023-04-15T01:58:57.049Z,2.13
2023-04-15T02:01:23.744Z,2.15
2023-04-15T02:03:50.696Z,2.10
2023-04-15T02:06:18.389Z,1.80
2023-04-15T02:08:45.221Z,1.88
2023-04-15T02:11:11.911Z,2.33
2023-04-15T02:13:38.591Z,2.33
2023-04-15T02:16:15.167Z,2.38
2023-04-15T02:18:44.384Z,2.40
2023-04-15T02:21:10.907Z,2.90
2023-04-15T02:23:38.160Z,2.78
2023-04-15T02:26:04.660Z,3.05
2023-04-15T02:28:31.638Z,2.67
2023-04-15T02:33:26.560Z,3.20
2023-04-15T02:35:53.290Z,3.45
2023-04-15T02:38:20.088Z,3.17
2023-04-15T02:40:49.720Z,3.40
2023-04-15T02:43:17.314Z,3.90
2023-04-15T02:45:44.218Z,3.25
2023-04-15T02:48:11.119Z,3.63
2023-04-15T02:50:39.862Z,3.58
2023-04-15T02:53:07.493Z,4.30
2023-04-15T02:55:34.236Z,4.38
2023-04-15T02:58:01.284Z,4.03
2023-04-15T03:00:28.342Z,4.97
2023-04-15T03:02:58.738Z,5.30
2023-04-15T03:05:25.783Z,5.63
2023-04-15T03:07:52.360Z,5.63
2023-04-15T03:10:20.073Z,6.38
2023-04-15T03:12:46.998Z,6.22
2023-04-15T03:15:17.868Z,5.88
2023-04-15T03:17:49.650Z,7.85
2023-04-15T03:20:17.077Z,9.43
2023-04-15T03:22:43.827Z,8.80
2023-04-15T03:25:10.860Z,9.77
2023-04-15T03:27:38.308Z,9.38
2023-04-15T03:30:06.768Z,9.45
2023-04-15T03:32:36.444Z,9.82
2023-04-15T03:35:03.000Z,10.25
2023-04-15T03:37:29.585Z,10.82
2023-04-15T03:39:56.536Z,10.93
2023-04-15T03:42:24.106Z,10.38
2023-04-15T03:44:51.010Z,10.55
2023-04-15T03:47:17.654Z,10.95
2023-04-15T03:49:44.214Z,10.43
2023-04-15T03:52:10.737Z,11.25
2023-04-15T03:54:37.276Z,12.18
2023-04-15T03:57:03.791Z,11.63
2023-04-15T03:59:30.624Z,11.05
2023-04-15T04:01:57.233Z,10.35
2023-04-15T04:04:24.001Z,11.27
2023-04-15T04:06:50.748Z,9.95
2023-04-15T04:09:17.308Z,9.93
2023-04-15T04:11:45.542Z,11.02
2023-04-15T04:14:12.211Z,10.18
2023-04-15T04:16:38.923Z,10.40
2023-04-15T04:19:05.501Z,10.25
2023-04-15T04:21:34.144Z,9.13
2023-04-15T04:24:00.815Z,8.38
2023-04-15T04:26:27.560Z,7.30
2023-04-15T04:28:54.134Z,7.45
2023-04-15T04:31:20.656Z,7.10
2023-04-15T04:33:47.256Z,7.07
2023-04-15T04:36:13.927Z,5.65
2023-04-15T04:38:40.648Z,5.82
2023-04-15T04:41:07.138Z,6.22
2023-04-15T04:43:33.653Z,6.25
2023-04-15T04:46:00.216Z,5.72
2023-04-15T04:48:27.261Z,5.53
2023-04-15T04:50:53.825Z,4.82
2023-04-15T04:53:20.534Z,3.80
2023-04-15T04:55:47.010Z,3.85
2023-04-15T04:58:13.773Z,3.17
2023-04-15T05:00:40.771Z,3.15
2023-04-15T05:03:07.549Z,3.72
2023-04-15T05:05:37.135Z,3.70
2023-04-15T05:08:03.832Z,3.80
2023-04-15T05:10:30.541Z,4.32
2023-04-15T05:12:57.649Z,4.07
2023-04-15T05:15:24.656Z,4.68
2023-04-15T05:17:51.752Z,4.93
2023-04-15T05:20:18.457Z,5.20
2023-04-15T05:22:45.344Z,5.13
2023-04-15T05:25:12.429Z,5.28
2023-04-15T05:27:38.944Z,5.38
2023-04-15T05:30:05.849Z,4.60
2023-04-15T05:32:32.546Z,4.95
2023-04-15T05:34:59.197Z,3.90
2023-04-15T05:37:26.251Z,3.47
2023-04-15T05:39:52.850Z,3.83
2023-04-15T05:42:19.493Z,3.25
2023-04-15T05:44:46.099Z,3.47
2023-04-15T05:47:13.107Z,4.70
2023-04-15T05:49:42.716Z,3.78
2023-04-15T05:52:09.275Z,3.70
2023-04-15T05:54:36.623Z,2.40
2023-04-15T05:57:04.074Z,2.10
2023-04-15T05:59:31.078Z,1.95
2023-04-15T06:02:01.703Z,1.35
2023-04-15T06:04:28.575Z,2.00
2023-04-15T06:06:55.457Z,4.68
2023-04-15T06:09:22.031Z,5.53
2023-04-15T06:11:48.695Z,5.93
2023-04-15T06:14:15.257Z,7.10
2023-04-15T06:16:42.520Z,7.15
2023-04-15T06:19:09.427Z,7.85
2023-04-15T06:21:36.111Z,8.15
2023-04-15T06:24:03.427Z,8.57
2023-04-15T06:26:29.964Z,8.02
2023-04-15T06:28:56.547Z,7.85
2023-04-15T06:31:23.102Z,8.23
2023-04-15T06:33:49.762Z,8.70
2023-04-15T06:36:16.507Z,8.82
2023-04-15T06:38:43.109Z,8.68
2023-04-15T06:41:09.799Z,7.57
2023-04-15T06:43:36.457Z,7.90
2023-04-15T06:46:03.014Z,7.88
2023-04-15T06:48:29.591Z,8.18
2023-04-15T06:50:56.661Z,8.77
2023-04-15T06:53:23.228Z,8.35
2023-04-15T06:55:49.865Z,8.98
2023-04-15T06:58:17.176Z,8.75
2023-04-15T07:00:43.757Z,9.63
2023-04-15T07:03:11.327Z,9.18
2023-04-15T07:05:38.562Z,9.18
2023-04-15T07:08:05.584Z,8.63
2023-04-15T07:10:33.476Z,8.20
2023-04-15T07:13:00.043Z,8.10
2023-04-15T07:15:26.575Z,7.97
2023-04-15T07:17:53.320Z,8.07
2023-04-15T07:20:19.868Z,8.35
2023-04-15T07:22:46.386Z,7.78
2023-04-15T07:25:12.900Z,7.97
2023-04-15T07:27:39.555Z,8.30
2023-04-15T07:30:06.412Z,7.57
2023-04-15T07:32:33.194Z,8.10
2023-04-15T07:34:59.837Z,8.50
2023-04-15T07:37:26.523Z,8.52
2023-04-15T07:39:53.592Z,8.80
2023-04-15T07:42:20.304Z,9.10
2023-04-15T07:44:46.775Z,9.13
2023-04-15T07:47:13.366Z,8.80
2023-04-15T07:49:39.834Z,8.68
2023-04-15T07:52:06.666Z,9.10
2023-04-15T07:54:33.222Z,8.65
2023-04-15T07:56:59.876Z,7.72
2023-04-15T07:59:27.722Z,7.63
2023-04-15T08:01:54.410Z,6.95
2023-04-15T08:04:21.055Z,7.20
2023-04-15T08:06:49.860Z,7.38
2023-04-15T08:09:17.431Z,7.22
2023-04-15T08:11:44.092Z,6.95
2023-04-15T08:14:10.805Z,7.32
2023-04-15T08:16:37.533Z,7.25
2023-04-15T08:19:04.736Z,7.25
2023-04-15T08:21:31.421Z,7.15
2023-04-15T08:23:57.959Z,6.60
2023-04-15T08:26:24.539Z,7.00
2023-04-15T08:28:51.407Z,7.40
2023-04-15T08:31:18.525Z,7.20
2023-04-15T08:33:45.780Z,7.55
2023-04-15T08:36:13.865Z,7.00
2023-04-15T08:38:40.547Z,7.20
2023-04-15T08:41:10.540Z,7.20
2023-04-15T08:43:42.315Z,6.95
2023-04-15T08:46:09.501Z,6.65
2023-04-15T08:48:38.480Z,6.72
2023-04-15T08:51:05.227Z,6.35
2023-04-15T08:53:31.857Z,6.88
2023-04-15T08:56:00.033Z,6.50
2023-04-15T08:58:26.673Z,6.28
2023-04-15T09:00:53.350Z,6.72
2023-04-15T09:03:20.258Z,5.85
2023-04-15T09:05:47.044Z,5.88
2023-04-15T09:08:13.658Z,5.55
2023-04-15T09:10:40.445Z,5.50
2023-04-15T09:13:07.035Z,5.53
2023-04-15T09:15:33.786Z,5.22
2023-04-15T09:18:00.614Z,5.50
2023-04-15T09:20:27.503Z,5.30
2023-04-15T09:22:54.435Z,4.93
2023-04-15T09:25:28.058Z,5.95
2023-04-15T09:27:59.080Z,5.97
2023-04-15T09:30:26.192Z,5.32
2023-04-15T09:32:53.650Z,5.95
2023-04-15T09:35:21.019Z,5.55
2023-04-15T09:37:47.699Z,6.13
2023-04-15T09:40:14.395Z,6.20
2023-04-15T09:42:56.411Z,6.03
2023-04-15T09:45:24.511Z,6.45
2023-04-15T09:47:52.744Z,6.22
2023-04-15T09:50:20.318Z,6.35
2023-04-15T09:52:47.128Z,6.20
2023-04-15T09:55:14.497Z,5.75
2023-04-15T09:57:41.864Z,6.00
2023-04-15T10:00:11.160Z,4.80
2023-04-15T10:02:39.999Z,4.18
2023-04-15T10:05:07.297Z,4.43
2023-04-15T10:07:34.164Z,4.55
2023-04-15T10:10:02.415Z,3.90
2023-04-15T10:12:29.496Z,3.90
2023-04-15T10:14:58.405Z,3.78
2023-04-15T10:17:26.739Z,3.90
2023-04-15T10:19:54.264Z,3.60
2023-04-15T10:22:21.523Z,4.03
2023-04-15T10:24:48.881Z,4.00
2023-04-15T10:27:16.227Z,4.85
2023-04-15T10:29:43.207Z,4.43
2023-04-15T10:32:10.818Z,4.43
2023-04-15T10:34:37.849Z,4.95
2023-04-15T10:37:04.816Z,5.22
2023-04-15T10:39:34.239Z,5.13
2023-04-15T10:42:13.765Z,5.43
2023-04-15T10:44:42.410Z,5.78
2023-04-15T10:47:19.072Z,5.78
2023-04-15T10:49:46.858Z,5.97
2023-04-15T10:52:14.317Z,6.47
2023-04-15T10:54:41.034Z,5.70
2023-04-15T10:57:09.465Z,5.45
2023-04-15T10:59:36.830Z,5.30
2023-04-15T11:02:05.957Z,5.35
2023-04-15T11:04:51.391Z,5.13
2023-04-15T11:07:36.983Z,4.78
2023-04-15T11:10:04.846Z,4.80
2023-04-15T11:12:35.784Z,4.15
2023-04-15T11:15:20.911Z,5.18
2023-04-15T11:20:16.030Z,4.78
2023-04-15T11:22:49.140Z,4.65
2023-04-15T11:25:25.023Z,4.50
2023-04-15T11:27:52.754Z,4.35
2023-04-15T11:30:23.126Z,4.88
2023-04-15T11:32:50.291Z,4.95
2023-04-15T11:35:17.761Z,4.63
2023-04-15T11:37:49.461Z,5.75
2023-04-15T11:40:17.643Z,6.75
2023-04-15T11:42:49.454Z,7.45
2023-04-15T11:45:16.674Z,6.90
2023-04-15T11:47:43.634Z,6.10
2023-04-15T11:50:20.094Z,7.18
2023-04-15T11:52:59.952Z,7.45
2023-04-15T11:55:26.593Z,7.15
2023-04-15T11:58:11.657Z,8.60
2023-04-15T12:03:14.452Z,8.63
2023-04-15T12:06:00.009Z,8.73
2023-04-15T12:08:27.288Z,8.43
2023-04-15T12:10:58.944Z,8.38
2023-04-15T12:13:27.762Z,7.47
2023-04-15T12:15:55.797Z,7.97
2023-04-15T12:18:25.786Z,7.30
2023-04-15T12:20:52.449Z,7.70
2023-04-15T12:23:22.102Z,7.90
2023-04-15T12:25:52.672Z,7.55
2023-04-15T12:28:19.411Z,7.70
2023-04-15T12:30:51.578Z,7.22
2023-04-15T12:33:27.771Z,6.38
2023-04-15T12:35:54.550Z,7.28
2023-04-15T12:38:21.176Z,6.43
2023-04-15T12:40:48.037Z,6.40
2023-04-15T12:43:14.469Z,6.70
2023-04-15T12:45:41.361Z,6.05
2023-04-15T12:48:09.304Z,6.90
2023-04-15T12:50:36.288Z,5.95
2023-04-15T12:53:03.718Z,6.13
2023-04-15T12:55:30.697Z,5.72
2023-04-15T12:57:57.464Z,5.75
2023-04-15T13:00:24.014Z,6.47
2023-04-15T13:02:50.666Z,5.80
2023-04-15T13:05:17.608Z,5.55
2023-04-15T13:07:44.237Z,6.13
2023-04-15T13:10:11.373Z,5.25
2023-04-15T13:12:37.892Z,5.53
2023-04-15T13:15:05.721Z,4.85
2023-04-15T13:17:32.476Z,5.07
2023-04-15T13:19:59.368Z,5.10
2023-04-15T13:22:26.011Z,4.30
2023-04-15T13:24:52.576Z,4.68
2023-04-15T13:27:19.148Z,4.53
2023-04-15T13:29:45.969Z,4.47
2023-04-15T13:32:12.495Z,4.10
2023-04-15T13:34:39.260Z,3.55
2023-04-15T13:37:09.253Z,3.65
2023-04-15T13:39:35.955Z,3.83
2023-04-15T13:42:03.142Z,3.58
2023-04-15T13:44:29.981Z,3.60
2023-04-15T13:46:56.462Z,3.42
2023-04-15T13:49:22.979Z,3.20
2023-04-15T13:51:49.409Z,3.53
2023-04-15T13:54:15.975Z,3.30
2023-04-15T13:56:42.540Z,3.60
2023-04-15T13:59:09.988Z,3.10
2023-04-15T14:01:36.466Z,3.53
2023-04-15T14:04:03.444Z,3.20
2023-04-15T14:06:31.713Z,3.70
2023-04-15T14:08:58.296Z,3.45
2023-04-15T14:11:25.188Z,3.78
2023-04-15T14:13:51.715Z,4.22
2023-04-15T14:16:18.228Z,3.90
2023-04-15T14:18:44.887Z,3.83
2023-04-15T14:21:11.347Z,3.53
2023-04-15T14:23:37.958Z,3.40
2023-04-15T14:26:04.555Z,3.90
2023-04-15T14:28:32.176Z,4.72
2023-04-15T14:30:58.752Z,3.83
2023-04-15T14:33:25.563Z,4.53
2023-04-15T14:35:52.034Z,4.22
2023-04-15T14:38:18.580Z,4.18
2023-04-15T14:40:45.334Z,4.55
2023-04-15T14:43:11.875Z,4.25
2023-04-15T14:45:40.693Z,4.25
2023-04-15T14:48:10.409Z,3.75
2023-04-15T14:50:36.994Z,3.72
2023-04-15T14:53:03.639Z,3.53
2023-04-15T14:55:30.188Z,3.47
2023-04-15T14:57:56.742Z,3.92
2023-04-15T15:00:23.266Z,4.22
2023-04-15T15:02:49.935Z,3.72
2023-04-15T15:05:16.674Z,4.65
2023-04-15T15:07:43.276Z,3.08
2023-04-15T15:10:09.839Z,2.70
2023-04-15T15:12:36.476Z,2.58
2023-04-15T15:15:09.212Z,2.55
2023-04-15T15:17:42.725Z,2.53
2023-04-15T15:20:09.422Z,2.42
2023-04-15T15:22:36.062Z,1.92
2023-04-15T15:25:03.174Z,2.25
2023-04-15T15:27:29.987Z,2.13
2023-04-15T15:29:56.699Z,2.28
2023-04-15T15:32:23.240Z,2.20
2023-04-15T15:34:49.820Z,2.03
2023-04-15T15:37:16.384Z,2.25
2023-04-15T15:39:43.055Z,2.28
2023-04-15T15:42:09.634Z,2.42
2023-04-15T15:44:38.441Z,2.45
2023-04-15T15:47:05.818Z,2.00
2023-04-15T15:49:32.308Z,2.47
2023-04-15T15:51:59.015Z,2.50
2023-04-15T15:54:25.664Z,2.72
2023-04-15T15:56:52.182Z,2.67
2023-04-15T15:59:19.828Z,2.33
2023-04-15T16:01:46.729Z,2.40
2023-04-15T16:04:13.444Z,2.58
2023-04-15T16:06:40.751Z,3.00
2023-04-15T16:09:07.311Z,3.08
2023-04-15T16:12:06.412Z,2.75
2023-04-15T16:14:33.044Z,2.20
2023-04-15T16:16:59.697Z,2.88
2023-04-15T16:19:26.469Z,3.08
2023-04-15T16:21:53.496Z,2.83
2023-04-15T16:24:20.082Z,3.13
2023-04-15T16:26:46.589Z,3.30
2023-04-15T16:29:21.345Z,3.00
2023-04-15T16:31:48.071Z,3.25
2023-04-15T16:34:15.914Z,3.20
2023-04-15T16:36:42.481Z,3.20
2023-04-15T16:39:08.996Z,2.80
2023-04-15T16:41:35.698Z,2.72
2023-04-15T16:44:03.427Z,3.10
2023-04-15T16:46:30.984Z,2.78
2023-04-15T16:49:40.989Z,3.28
2023-04-15T16:52:16.388Z,3.50
2023-04-15T16:54:43.065Z,2.83
2023-04-15T16:57:09.848Z,2.90
2023-04-15T16:59:36.437Z,3.15
2023-04-15T17:02:03.107Z,3.20
2023-04-15T17:04:30.052Z,2.53
2023-04-15T17:06:57.730Z,2.50
2023-04-15T17:09:24.320Z,2.47
2023-04-15T17:11:51.060Z,3.15
2023-04-15T17:14:17.657Z,2.80
2023-04-15T17:16:44.499Z,3.03
2023-04-15T17:19:11.475Z,2.65
2023-04-15T17:21:38.003Z,2.85
2023-04-15T17:24:06.209Z,2.65
2023-04-15T17:26:32.861Z,2.97
2023-04-15T17:28:59.382Z,2.80
2023-04-15T17:31:26.418Z,2.60
2023-04-15T17:34:02.136Z,2.45
2023-04-15T17:36:34.473Z,2.20
2023-04-15T17:39:01.075Z,3.03
2023-04-15T17:41:27.690Z,2.60
2023-04-15T17:43:54.217Z,2.70
2023-04-15T17:46:21.135Z,3.05
2023-04-15T17:48:48.064Z,2.70
2023-04-15T17:51:15.347Z,2.92
2023-04-15T17:53:42.177Z,3.30
2023-04-15T17:56:08.745Z,2.92
2023-04-15T17:58:38.430Z,2.72
2023-04-15T18:01:05.265Z,2.65
2023-04-15T18:03:32.243Z,2.90
2023-04-15T18:06:01.897Z,3.00
2023-04-15T18:08:28.768Z,2.90
2023-04-15T18:10:55.576Z,2.85
2023-04-15T18:13:22.228Z,2.97
2023-04-15T18:15:49.563Z,3.47
2023-04-15T18:18:16.098Z,3.40
2023-04-15T18:20:42.861Z,3.78
2023-04-15T18:23:09.380Z,3.45
2023-04-15T18:25:38.091Z,3.33
2023-04-15T18:28:05.458Z,3.33
2023-04-15T18:30:32.086Z,3.63
2023-04-15T18:32:58.612Z,3.78
2023-04-15T18:35:26.110Z,2.70
2023-04-15T18:37:53.169Z,3.22
2023-04-15T18:40:19.899Z,3.85
2023-04-15T18:42:46.417Z,3.70
2023-04-15T18:45:13.052Z,2.92
2023-04-15T18:47:39.602Z,3.38
2023-04-15T18:50:06.960Z,4.07
2023-04-15T18:52:34.328Z,4.93
2023-04-15T18:55:03.124Z,3.40
2023-04-15T18:57:35.897Z,3.20
2023-04-15T19:00:04.996Z,3.83
2023-04-15T19:02:31.868Z,3.28
2023-04-15T19:04:58.635Z,2.92
2023-04-15T19:07:25.300Z,2.80
2023-04-15T19:09:52.825Z,2.65
2023-04-15T19:12:19.421Z,2.22
2023-04-15T19:14:46.024Z,2.70
2023-04-15T19:17:12.518Z,2.80
2023-04-15T19:19:39.162Z,2.35
2023-04-15T19:22:06.386Z,2.60
2023-04-15T19:24:33.323Z,2.42
2023-04-15T19:27:00.134Z,2.50
2023-04-15T19:29:28.638Z,2.20
2023-04-15T19:31:55.641Z,2.38
2023-04-15T19:34:22.694Z,2.65
2023-04-15T19:36:49.415Z,2.28
2023-04-15T19:39:16.341Z,2.15
2023-04-15T19:41:44.342Z,2.05
2023-04-15T19:44:14.133Z,2.30
2023-04-15T19:46:43.708Z,2.70
2023-04-15T19:49:10.805Z,2.08
2023-04-15T19:51:40.707Z,2.58
2023-04-15T19:54:07.801Z,2.38
2023-04-15T19:56:34.590Z,2.40
2023-04-15T19:59:01.986Z,2.13
2023-04-15T20:01:28.831Z,2.55
2023-04-15T20:03:55.908Z,2.17
2023-04-15T20:06:23.007Z,1.90
2023-04-15T20:08:49.740Z,2.50
2023-04-15T20:11:16.249Z,2.00
2023-04-15T20:13:42.804Z,2.10
2023-04-15T20:16:09.516Z,1.90
2023-04-15T20:18:36.094Z,2.15
2023-04-15T20:21:02.595Z,1.98
2023-04-15T20:23:29.083Z,1.70
2023-04-15T20:25:55.611Z,1.85
2023-04-15T20:28:23.464Z,1.40
2023-04-15T20:30:49.914Z,1.90
2023-04-15T20:33:16.452Z,1.42
2023-04-15T20:35:42.983Z,1.85
2023-04-15T20:38:09.592Z,1.80
2023-04-15T20:40:36.491Z,2.25
2023-04-15T20:43:03.087Z,2.00
2023-04-15T20:45:29.630Z,1.55
2023-04-15T20:47:56.344Z,1.58
2023-04-15T20:50:22.958Z,1.90
2023-04-15T20:52:49.579Z,2.05
2023-04-15T20:55:16.264Z,2.05
2023-04-15T20:57:42.929Z,1.90
2023-04-15T21:00:10.947Z,2.35
2023-04-15T21:02:38.117Z,1.77
2023-04-15T21:05:04.981Z,1.88
2023-04-15T21:07:31.566Z,1.98
2023-04-15T21:09:58.051Z,2.28
2023-04-15T21:12:24.610Z,2.03
2023-04-15T21:14:51.301Z,1.90
2023-04-15T21:17:18.141Z,2.25
2023-04-15T21:19:44.932Z,2.03
2023-04-15T21:22:11.546Z,2.05
2023-04-15T21:24:38.619Z,2.05
2023-04-15T21:27:05.977Z,2.10
2023-04-15T21:29:32.521Z,1.70
2023-04-15T21:31:59.228Z,2.00
2023-04-15T21:34:25.917Z,1.40
2023-04-15T21:36:52.890Z,2.30
2023-04-15T21:39:21.503Z,1.83
2023-04-15T21:41:48.402Z,2.10
2023-04-15T21:44:15.240Z,2.08
2023-04-15T21:46:42.080Z,1.85
2023-04-15T21:49:13.056Z,2.00
2023-04-15T21:51:39.676Z,1.65
2023-04-15T21:54:06.358Z,1.90
2023-04-15T21:56:33.001Z,2.33
2023-04-15T21:58:59.694Z,1.92
2023-04-15T22:01:26.726Z,2.17
2023-04-15T22:03:53.730Z,1.67
2023-04-15T22:06:20.482Z,2.03
2023-04-15T22:08:56.036Z,1.70
2023-04-15T22:11:27.434Z,2.35
2023-04-15T22:13:57.052Z,2.17
2023-04-15T22:16:25.095Z,2.30
2023-04-15T22:18:52.092Z,1.70
2023-04-15T22:21:18.710Z,1.75
2023-04-15T22:23:48.403Z,2.13
2023-04-15T22:26:15.022Z,1.70
2023-04-15T22:28:41.987Z,1.55
2023-04-15T22:31:08.737Z,1.85
2023-04-15T22:33:35.521Z,1.85
2023-04-15T22:36:02.167Z,1.73
2023-04-15T22:38:28.699Z,1.45
2023-04-15T22:40:55.447Z,1.20
2023-04-15T22:43:22.098Z,1.27
2023-04-15T22:45:53.134Z,1.42
2023-04-15T22:48:19.894Z,1.48
2023-04-15T22:50:46.882Z,2.00
2023-04-15T22:53:14.771Z,1.40
2023-04-15T22:55:44.840Z,1.90
2023-04-15T22:58:11.512Z,1.48
2023-04-15T23:00:38.507Z,1.60
2023-04-15T23:03:05.256Z,1.33
2023-04-15T23:05:33.905Z,1.40
2023-04-15T23:08:00.704Z,1.20
2023-04-15T23:10:27.246Z,1.20
2023-04-15T23:12:54.087Z,1.77
2023-04-15T23:15:20.663Z,1.58
2023-04-15T23:17:47.401Z,1.20
2023-04-15T23:20:15.943Z,1.65
2023-04-15T23:22:43.196Z,1.40
2023-04-15T23:25:10.101Z,1.67
2023-04-15T23:27:38.107Z,1.75
2023-04-15T23:30:04.893Z,1.75
2023-04-15T23:32:31.739Z,1.40
2023-04-15T23:34:58.269Z,1.20
2023-04-15T23:37:24.951Z,1.00
2023-04-15T23:39:51.928Z,1.40
2023-04-15T23:42:18.665Z,1.00
2023-04-15T23:44:45.507Z,1.20
2023-04-15T23:47:12.039Z,1.20
2023-04-15T23:49:40.959Z,1.42
2023-04-15T23:52:07.989Z,1.17
2023-04-15T23:54:34.487Z,1.10
2023-04-15T23:57:01.298Z,1.20
2023-04-15T23:59:27.925Z,1.55
